createdAt,value
2022-07-31T00:02:08.741Z,1.88
2022-07-31T00:04:36.346Z,1.80
2022-07-31T00:07:03.623Z,1.88
2022-07-31T00:09:53.641Z,1.73
2022-07-31T00:12:18.039Z,1.75
2022-07-31T00:14:45.529Z,1.60
2022-07-31T00:17:12.609Z,1.75
2022-07-31T00:19:39.749Z,2.05
2022-07-31T00:22:06.603Z,1.90
2022-07-31T00:24:34.037Z,1.95
2022-07-31T00:27:01.549Z,1.92
2022-07-31T00:29:28.647Z,2.00
2022-07-31T00:31:55.625Z,1.65
2022-07-31T00:34:23.122Z,2.10
2022-07-31T00:36:50.045Z,2.30
2022-07-31T00:39:17.003Z,2.05
2022-07-31T00:41:45.833Z,2.17
2022-07-31T00:44:13.739Z,2.13
2022-07-31T00:46:42.231Z,2.15
2022-07-31T00:49:12.313Z,2.08
2022-07-31T00:51:40.463Z,2.22
2022-07-31T00:54:08.632Z,2.08
2022-07-31T00:56:36.179Z,2.10
2022-07-31T00:59:04.889Z,3.47
2022-07-31T01:01:32.402Z,2.30
2022-07-31T01:03:59.505Z,2.63
2022-07-31T01:06:26.839Z,2.40
2022-07-31T01:08:53.815Z,2.50
2022-07-31T01:11:47.581Z,2.47
2022-07-31T01:14:15.627Z,2.42
2022-07-31T01:16:48.367Z,2.03
2022-07-31T01:19:42.520Z,2.50
2022-07-31T01:22:32.999Z,2.25
2022-07-31T01:25:32.605Z,2.20
2022-07-31T01:28:33.219Z,2.20
2022-07-31T01:31:30.955Z,2.38
2022-07-31T01:34:05.591Z,2.83
2022-07-31T01:36:35.375Z,2.38
2022-07-31T01:39:03.652Z,2.20
2022-07-31T01:41:36.138Z,2.20
2022-07-31T01:44:05.365Z,1.98
2022-07-31T01:46:37.447Z,2.38
2022-07-31T01:49:11.168Z,2.17
2022-07-31T01:51:39.589Z,2.10
2022-07-31T01:54:07.429Z,2.08
2022-07-31T01:56:35.150Z,2.25
2022-07-31T01:59:04.060Z,2.20
2022-07-31T02:01:32.504Z,2.20
2022-07-31T02:04:03.077Z,2.30
2022-07-31T02:06:31.145Z,1.98
2022-07-31T02:09:01.007Z,1.90
2022-07-31T02:11:28.090Z,2.00
2022-07-31T02:13:57.356Z,1.80
2022-07-31T02:16:26.689Z,2.05
2022-07-31T02:18:55.432Z,2.17
2022-07-31T02:21:25.504Z,2.08
2022-07-31T02:23:52.594Z,2.20
2022-07-31T02:26:20.190Z,2.15
2022-07-31T02:28:48.745Z,2.30
2022-07-31T02:31:18.448Z,2.28
2022-07-31T02:33:47.181Z,1.95
2022-07-31T02:36:16.378Z,1.77
2022-07-31T02:38:44.186Z,2.08
2022-07-31T02:41:12.912Z,1.95
2022-07-31T02:43:40.853Z,1.92
2022-07-31T02:46:08.998Z,2.38
2022-07-31T02:48:37.305Z,2.42
2022-07-31T02:51:05.423Z,2.40
2022-07-31T02:53:33.558Z,2.70
2022-07-31T02:56:04.289Z,2.55
2022-07-31T02:58:31.395Z,2.58
2022-07-31T03:01:05.858Z,2.00
2022-07-31T03:03:33.106Z,2.40
2022-07-31T03:06:00.453Z,2.40
2022-07-31T03:08:28.309Z,2.28
2022-07-31T03:10:55.988Z,2.53
2022-07-31T03:13:25.837Z,2.20
2022-07-31T03:15:54.271Z,2.20
2022-07-31T03:18:21.834Z,2.38
2022-07-31T03:20:53.262Z,2.33
2022-07-31T03:23:22.658Z,2.40
2022-07-31T03:25:50.870Z,2.65
2022-07-31T03:28:21.995Z,2.50
2022-07-31T03:30:51.963Z,2.70
2022-07-31T03:33:23.659Z,2.45
2022-07-31T03:35:50.845Z,2.97
2022-07-31T03:38:38.304Z,2.45
2022-07-31T03:41:04.928Z,2.30
2022-07-31T03:43:44.246Z,2.47
2022-07-31T03:46:18.834Z,2.50
2022-07-31T03:48:46.474Z,2.53
2022-07-31T03:51:13.699Z,2.53
2022-07-31T03:53:41.445Z,2.60
2022-07-31T03:56:09.675Z,2.58
2022-07-31T03:58:38.636Z,2.40
2022-07-31T04:01:10.332Z,2.35
2022-07-31T04:03:39.751Z,2.40
2022-07-31T04:06:07.701Z,2.70
2022-07-31T04:08:34.919Z,2.88
2022-07-31T04:11:02.307Z,2.67
2022-07-31T04:13:29.215Z,2.30
2022-07-31T04:15:56.167Z,2.30
2022-07-31T04:18:23.136Z,2.67
2022-07-31T04:20:50.144Z,2.70
2022-07-31T04:23:17.231Z,2.90
2022-07-31T04:25:44.220Z,2.80
2022-07-31T04:28:11.345Z,2.65
2022-07-31T04:30:39.168Z,2.70
2022-07-31T04:33:06.410Z,2.67
2022-07-31T04:35:33.481Z,2.40
2022-07-31T04:38:00.451Z,2.45
2022-07-31T04:40:27.583Z,2.50
2022-07-31T04:42:55.374Z,3.15
2022-07-31T04:45:22.282Z,2.35
2022-07-31T04:47:49.300Z,2.60
2022-07-31T04:50:16.333Z,2.58
2022-07-31T04:52:43.334Z,2.45
2022-07-31T04:55:10.406Z,2.40
2022-07-31T04:57:37.483Z,2.30
2022-07-31T05:00:10.567Z,2.17
2022-07-31T05:02:38.260Z,2.28
2022-07-31T05:05:05.868Z,2.72
2022-07-31T05:07:32.910Z,2.45
2022-07-31T05:10:00.085Z,2.28
2022-07-31T05:12:27.594Z,2.20
2022-07-31T05:14:54.735Z,2.53
2022-07-31T05:17:22.044Z,2.45
2022-07-31T05:19:49.025Z,2.42
2022-07-31T05:22:15.855Z,2.33
2022-07-31T05:24:45.811Z,2.40
2022-07-31T05:27:12.945Z,2.17
2022-07-31T05:29:39.840Z,2.40
2022-07-31T05:32:07.142Z,2.42
2022-07-31T05:34:34.136Z,2.20
2022-07-31T05:37:02.113Z,2.75
2022-07-31T05:39:29.744Z,2.65
2022-07-31T05:41:56.697Z,2.28
2022-07-31T05:44:23.667Z,2.30
2022-07-31T05:49:19.563Z,2.30
2022-07-31T05:51:46.979Z,2.10
2022-07-31T05:54:14.463Z,2.33
2022-07-31T05:56:41.629Z,2.33
2022-07-31T05:59:09.708Z,2.05
2022-07-31T06:01:37.533Z,2.00
2022-07-31T06:04:04.750Z,2.22
2022-07-31T06:06:31.989Z,2.10
2022-07-31T06:09:04.125Z,2.00
2022-07-31T06:11:31.972Z,2.20
2022-07-31T06:13:58.986Z,2.17
2022-07-31T06:16:26.305Z,2.20
2022-07-31T06:18:53.249Z,1.98
2022-07-31T06:23:46.458Z,1.77
2022-07-31T06:26:13.369Z,2.00
2022-07-31T06:28:48.669Z,2.00
2022-07-31T06:31:21.031Z,2.30
2022-07-31T06:33:49.625Z,1.73
2022-07-31T06:36:17.989Z,2.00
2022-07-31T06:38:45.944Z,1.67
2022-07-31T06:41:36.361Z,1.90
2022-07-31T06:44:03.553Z,1.95
2022-07-31T06:46:30.519Z,2.10
2022-07-31T06:48:57.616Z,1.95
2022-07-31T06:51:32.280Z,1.83
2022-07-31T06:54:01.039Z,1.85
2022-07-31T06:56:29.500Z,1.92
2022-07-31T06:58:57.038Z,1.67
2022-07-31T07:01:24.169Z,1.80
2022-07-31T07:03:51.366Z,1.80
2022-07-31T07:06:18.449Z,1.80
2022-07-31T07:08:45.584Z,1.70
2022-07-31T07:11:12.641Z,1.77
2022-07-31T07:13:44.961Z,1.70
2022-07-31T07:16:14.374Z,1.80
2022-07-31T07:18:41.652Z,1.80
2022-07-31T07:21:09.005Z,1.67
2022-07-31T07:23:36.320Z,1.85
2022-07-31T07:26:04.233Z,1.70
2022-07-31T07:28:31.579Z,1.70
2022-07-31T07:30:59.036Z,1.50
2022-07-31T07:33:40.789Z,1.77
2022-07-31T07:36:23.302Z,1.70
2022-07-31T07:38:55.881Z,1.83
2022-07-31T07:41:24.391Z,1.73
2022-07-31T07:43:52.524Z,1.90
2022-07-31T07:46:21.154Z,1.70
2022-07-31T07:48:49.177Z,1.73
2022-07-31T07:51:16.644Z,1.40
2022-07-31T07:53:43.550Z,1.40
2022-07-31T07:56:10.472Z,1.58
2022-07-31T07:58:37.501Z,1.40
2022-07-31T08:01:04.724Z,1.30
2022-07-31T08:03:49.000Z,1.38
2022-07-31T08:06:20.156Z,1.45
2022-07-31T08:08:47.314Z,1.25
2022-07-31T08:11:16.891Z,1.40
2022-07-31T08:13:50.263Z,1.50
2022-07-31T08:16:20.247Z,1.20
2022-07-31T08:18:48.192Z,1.10
2022-07-31T08:21:15.280Z,1.15
2022-07-31T08:23:42.321Z,1.30
2022-07-31T08:26:09.627Z,1.10
2022-07-31T08:28:36.981Z,1.20
2022-07-31T08:31:04.114Z,1.15
2022-07-31T08:33:33.164Z,1.20
2022-07-31T08:36:00.962Z,1.00
2022-07-31T08:38:28.840Z,1.20
2022-07-31T08:40:56.047Z,1.30
2022-07-31T08:44:00.660Z,1.27
2022-07-31T08:46:10.928Z,1.40
2022-07-31T08:48:41.361Z,1.20
2022-07-31T08:51:12.418Z,1.20
2022-07-31T08:53:42.287Z,1.40
2022-07-31T08:56:10.314Z,1.20
2022-07-31T08:58:39.616Z,1.40
2022-07-31T09:01:08.778Z,1.55
2022-07-31T09:03:36.481Z,1.40
2022-07-31T09:06:05.040Z,1.30
2022-07-31T09:08:36.582Z,1.35
2022-07-31T09:11:08.230Z,1.42
2022-07-31T09:13:35.718Z,1.35
2022-07-31T09:16:03.667Z,1.30
2022-07-31T09:18:31.072Z,1.30
2022-07-31T09:21:00.518Z,1.33
2022-07-31T09:23:30.629Z,1.27
2022-07-31T09:26:05.167Z,1.20
2022-07-31T09:28:40.708Z,1.20
2022-07-31T09:31:09.382Z,1.40
2022-07-31T09:33:42.328Z,1.48
2022-07-31T09:36:12.619Z,1.60
2022-07-31T09:38:44.402Z,1.23
2022-07-31T09:41:26.850Z,1.10
2022-07-31T09:44:09.701Z,1.00
2022-07-31T09:46:46.184Z,1.10
2022-07-31T09:49:13.235Z,1.27
2022-07-31T09:51:48.398Z,1.00
2022-07-31T09:54:23.372Z,0.90
2022-07-31T09:56:50.616Z,1.20
2022-07-31T09:59:17.828Z,1.08
2022-07-31T10:01:49.195Z,1.13
2022-07-31T10:04:21.991Z,1.17
2022-07-31T10:06:51.190Z,1.00
2022-07-31T10:09:20.843Z,1.10
2022-07-31T10:11:49.951Z,1.10
2022-07-31T10:14:28.496Z,1.10
2022-07-31T10:16:59.144Z,1.30
2022-07-31T10:19:31.814Z,1.20
2022-07-31T10:22:01.867Z,1.08
2022-07-31T10:24:32.994Z,0.95
2022-07-31T10:27:01.863Z,0.80
2022-07-31T10:29:39.190Z,1.10
2022-07-31T10:32:07.516Z,1.02
2022-07-31T10:34:35.324Z,1.08
2022-07-31T10:37:32.313Z,1.17
2022-07-31T10:40:29.170Z,1.15
2022-07-31T10:43:20.461Z,1.00
2022-07-31T10:45:55.794Z,1.02
2022-07-31T10:48:23.621Z,1.20
2022-07-31T10:51:01.998Z,1.00
2022-07-31T10:53:51.131Z,3.25
2022-07-31T10:56:15.916Z,1.42
2022-07-31T10:58:56.994Z,1.30
2022-07-31T11:01:26.447Z,1.05
2022-07-31T11:03:59.803Z,1.10
2022-07-31T11:06:39.902Z,0.90
2022-07-31T11:09:06.946Z,1.27
2022-07-31T11:11:36.768Z,1.00
2022-07-31T11:14:04.253Z,1.00
2022-07-31T11:16:31.559Z,1.00
2022-07-31T11:19:08.333Z,0.90
2022-07-31T11:21:41.102Z,1.25
2022-07-31T11:24:23.382Z,0.90
2022-07-31T11:26:57.506Z,1.10
2022-07-31T11:30:01.279Z,1.00
2022-07-31T11:32:26.151Z,1.10
2022-07-31T11:34:57.279Z,1.20
2022-07-31T11:37:41.936Z,1.23
2022-07-31T11:40:14.003Z,0.93
2022-07-31T11:42:46.254Z,0.90
2022-07-31T11:45:15.305Z,0.90
2022-07-31T11:48:11.319Z,1.05
2022-07-31T11:50:41.716Z,1.10
2022-07-31T11:53:08.621Z,1.10
2022-07-31T11:55:50.080Z,1.10
2022-07-31T11:58:18.662Z,0.90
2022-07-31T12:00:50.765Z,1.10
2022-07-31T12:03:19.888Z,0.90
2022-07-31T12:05:52.523Z,1.20
2022-07-31T12:08:20.522Z,0.90
2022-07-31T12:10:48.254Z,1.10
2022-07-31T12:13:17.414Z,0.93
2022-07-31T12:16:08.092Z,0.88
2022-07-31T12:18:58.987Z,1.00
2022-07-31T12:21:37.880Z,1.00
2022-07-31T12:24:14.905Z,1.00
2022-07-31T12:26:51.332Z,1.13
2022-07-31T12:29:19.437Z,1.00
2022-07-31T12:31:50.604Z,0.98
2022-07-31T12:34:30.876Z,1.20
2022-07-31T12:37:13.333Z,1.17
2022-07-31T12:39:59.504Z,0.93
2022-07-31T12:42:36.472Z,1.00
2022-07-31T12:45:18.366Z,1.20
2022-07-31T12:47:51.809Z,0.90
2022-07-31T12:50:23.697Z,1.02
2022-07-31T12:52:51.060Z,1.00
2022-07-31T12:55:18.186Z,1.05
2022-07-31T12:57:50.317Z,0.93
2022-07-31T13:00:22.441Z,1.00
2022-07-31T13:02:49.830Z,1.00
2022-07-31T13:05:17.280Z,0.90
2022-07-31T13:07:44.297Z,1.02
2022-07-31T13:10:19.030Z,1.10
2022-07-31T13:12:50.840Z,1.00
2022-07-31T13:15:23.411Z,1.00
2022-07-31T13:17:51.181Z,0.90
2022-07-31T13:20:19.219Z,1.08
2022-07-31T13:22:46.299Z,0.98
2022-07-31T13:25:13.498Z,0.98
2022-07-31T13:27:41.565Z,1.00
2022-07-31T13:30:09.877Z,0.98
2022-07-31T13:32:37.065Z,1.00
2022-07-31T13:35:23.973Z,0.88
2022-07-31T13:37:52.124Z,0.90
2022-07-31T13:40:19.738Z,1.00
2022-07-31T13:42:46.631Z,0.85
2022-07-31T13:45:13.763Z,0.88
2022-07-31T13:47:50.492Z,1.00
2022-07-31T13:50:19.086Z,0.80
2022-07-31T13:52:46.289Z,0.90
2022-07-31T13:55:13.175Z,0.93
2022-07-31T13:57:40.179Z,1.10
2022-07-31T14:00:07.731Z,0.85
2022-07-31T14:02:34.772Z,0.90
2022-07-31T14:05:02.716Z,0.90
2022-07-31T14:07:45.632Z,0.90
2022-07-31T14:10:20.666Z,1.10
2022-07-31T14:12:48.658Z,0.85
2022-07-31T14:15:18.094Z,1.20
2022-07-31T14:17:45.177Z,0.82
2022-07-31T14:20:13.142Z,1.00
2022-07-31T14:22:40.305Z,1.00
2022-07-31T14:25:07.752Z,0.98
2022-07-31T14:27:34.979Z,0.90
2022-07-31T14:30:02.517Z,1.00
2022-07-31T14:32:30.826Z,1.10
2022-07-31T14:34:57.886Z,1.10
2022-07-31T14:37:24.949Z,0.90
2022-07-31T14:39:52.229Z,1.30
2022-07-31T14:42:22.495Z,1.20
2022-07-31T14:44:53.496Z,1.00
2022-07-31T14:47:20.462Z,0.90
2022-07-31T14:50:06.902Z,1.10
2022-07-31T14:52:34.539Z,1.00
2022-07-31T14:55:01.512Z,1.00
2022-07-31T14:57:30.149Z,0.93
2022-07-31T14:59:57.596Z,1.10
2022-07-31T15:02:25.086Z,0.95
2022-07-31T15:04:52.742Z,1.10
2022-07-31T15:07:39.447Z,1.00
2022-07-31T15:10:09.155Z,0.90
2022-07-31T15:12:36.185Z,0.98
2022-07-31T15:15:03.416Z,0.80
2022-07-31T15:17:30.345Z,1.00
2022-07-31T15:19:57.220Z,0.90
2022-07-31T15:22:24.135Z,0.80
2022-07-31T15:24:51.185Z,1.00
2022-07-31T15:27:20.855Z,1.10
2022-07-31T15:30:03.979Z,0.90
2022-07-31T15:32:34.117Z,1.20
2022-07-31T15:35:01.084Z,1.00
2022-07-31T15:37:28.176Z,0.80
2022-07-31T15:40:01.497Z,1.00
2022-07-31T15:42:34.745Z,0.82
2022-07-31T15:45:02.296Z,0.90
2022-07-31T15:47:29.396Z,0.82
2022-07-31T15:49:56.572Z,0.80
2022-07-31T15:52:24.096Z,1.00
2022-07-31T15:54:52.082Z,0.95
2022-07-31T15:57:21.345Z,1.10
2022-07-31T15:59:49.492Z,1.10
2022-07-31T16:02:17.264Z,1.10
2022-07-31T16:04:53.120Z,1.05
2022-07-31T16:08:28.877Z,1.00
2022-07-31T16:10:15.934Z,1.00
2022-07-31T16:12:48.088Z,1.05
2022-07-31T16:15:16.397Z,1.10
2022-07-31T16:17:44.298Z,1.23
2022-07-31T16:20:25.790Z,0.93
2022-07-31T16:23:01.607Z,0.98
2022-07-31T16:25:32.153Z,1.08
2022-07-31T16:28:03.589Z,1.00
2022-07-31T16:30:31.324Z,0.90
2022-07-31T16:32:58.304Z,0.88
2022-07-31T16:35:26.296Z,1.00
2022-07-31T16:37:54.314Z,0.90
2022-07-31T16:40:28.333Z,0.95
2022-07-31T16:43:46.798Z,1.00
2022-07-31T16:45:50.231Z,0.98
2022-07-31T16:48:17.288Z,0.80
2022-07-31T16:50:44.295Z,1.13
2022-07-31T16:54:11.198Z,1.10
2022-07-31T16:56:01.870Z,0.90
2022-07-31T16:58:29.299Z,1.13
2022-07-31T17:00:56.823Z,1.20
2022-07-31T17:04:01.843Z,1.10
2022-07-31T17:06:11.999Z,1.30
2022-07-31T17:08:38.963Z,0.90
2022-07-31T17:11:06.257Z,1.05
2022-07-31T17:13:33.179Z,1.10
2022-07-31T17:16:00.290Z,1.30
2022-07-31T17:18:27.204Z,1.02
2022-07-31T17:20:55.654Z,1.63
2022-07-31T17:23:43.589Z,1.20
2022-07-31T17:26:21.530Z,1.60
2022-07-31T17:28:50.764Z,1.30
2022-07-31T17:31:18.996Z,1.13
2022-07-31T17:33:58.485Z,1.05
2022-07-31T17:36:27.607Z,1.15
2022-07-31T17:38:54.576Z,1.45
2022-07-31T17:41:25.183Z,1.10
2022-07-31T17:43:56.310Z,1.20
2022-07-31T17:46:34.894Z,1.10
2022-07-31T17:49:19.688Z,1.13
2022-07-31T17:51:57.766Z,1.05
2022-07-31T17:54:26.605Z,1.00
2022-07-31T17:56:56.027Z,1.13
2022-07-31T17:59:23.379Z,1.20
2022-07-31T18:01:52.322Z,1.50
2022-07-31T18:04:31.367Z,1.13
2022-07-31T18:06:59.618Z,1.10
2022-07-31T18:09:27.988Z,1.00
2022-07-31T18:11:55.459Z,1.20
2022-07-31T18:14:24.625Z,1.02
2022-07-31T18:16:52.509Z,1.30
2022-07-31T18:19:21.371Z,1.17
2022-07-31T18:21:48.746Z,1.20
2022-07-31T18:24:16.324Z,1.10
2022-07-31T18:26:43.324Z,1.20
2022-07-31T18:29:10.981Z,1.02
2022-07-31T18:31:38.424Z,1.05
2022-07-31T18:34:05.725Z,1.17
2022-07-31T18:36:33.757Z,1.08
2022-07-31T18:39:01.346Z,1.30
2022-07-31T18:41:28.721Z,1.25
2022-07-31T18:43:55.849Z,1.30
2022-07-31T18:46:24.632Z,1.00
2022-07-31T18:48:55.545Z,1.25
2022-07-31T18:51:24.498Z,1.20
2022-07-31T18:53:52.092Z,1.02
2022-07-31T18:56:23.057Z,1.15
2022-07-31T18:58:50.123Z,2.00
2022-07-31T19:01:17.138Z,1.90
2022-07-31T19:03:44.213Z,1.70
2022-07-31T19:06:11.595Z,1.50
2022-07-31T19:08:38.984Z,1.30
2022-07-31T19:11:05.973Z,1.30
2022-07-31T19:13:33.137Z,1.25
2022-07-31T19:16:00.149Z,1.23
2022-07-31T19:18:28.631Z,1.20
2022-07-31T19:21:22.637Z,1.55
2022-07-31T19:23:46.897Z,1.33
2022-07-31T19:26:14.061Z,1.38
2022-07-31T19:28:43.317Z,1.52
2022-07-31T19:31:11.650Z,1.45
2022-07-31T19:33:38.876Z,1.33
2022-07-31T19:36:06.370Z,1.40
2022-07-31T19:38:36.039Z,1.30
2022-07-31T19:41:03.676Z,1.40
2022-07-31T19:43:31.040Z,1.33
2022-07-31T19:46:06.889Z,1.33
2022-07-31T19:48:44.429Z,1.40
2022-07-31T19:51:13.551Z,1.40
2022-07-31T19:53:41.638Z,1.38
2022-07-31T19:56:09.900Z,1.40
2022-07-31T19:58:38.565Z,1.20
2022-07-31T20:01:06.327Z,1.30
2022-07-31T20:03:34.328Z,1.30
2022-07-31T20:06:03.029Z,1.25
2022-07-31T20:08:33.395Z,1.42
2022-07-31T20:11:03.927Z,1.27
2022-07-31T20:13:35.391Z,1.40
2022-07-31T20:16:02.349Z,1.52
2022-07-31T20:18:30.496Z,1.40
2022-07-31T20:21:00.812Z,1.40
2022-07-31T20:23:28.254Z,1.30
2022-07-31T20:25:55.451Z,1.40
2022-07-31T20:28:23.015Z,1.60
2022-07-31T20:30:50.060Z,1.50
2022-07-31T20:33:17.526Z,1.40
2022-07-31T20:35:48.598Z,1.42
2022-07-31T20:38:24.194Z,1.33
2022-07-31T20:40:55.280Z,1.25
2022-07-31T20:43:25.165Z,1.30
2022-07-31T20:45:52.446Z,1.40
2022-07-31T20:48:21.580Z,1.63
2022-07-31T20:50:48.762Z,1.30
2022-07-31T20:53:16.670Z,1.20
2022-07-31T20:55:49.508Z,1.67
2022-07-31T20:58:21.592Z,1.30
2022-07-31T21:00:50.108Z,1.70
2022-07-31T21:03:18.681Z,1.50
2022-07-31T21:05:46.839Z,1.58
2022-07-31T21:08:13.986Z,1.40
2022-07-31T21:10:41.383Z,1.40
2022-07-31T21:13:08.906Z,1.40
2022-07-31T21:15:43.229Z,1.30
2022-07-31T21:18:16.025Z,1.45
2022-07-31T21:20:51.067Z,1.40
2022-07-31T21:23:22.084Z,1.40
2022-07-31T21:25:50.194Z,1.40
2022-07-31T21:28:17.493Z,1.23
2022-07-31T21:30:44.798Z,1.30
2022-07-31T21:33:11.894Z,1.23
2022-07-31T21:35:40.231Z,1.27
2022-07-31T21:38:11.785Z,1.30
2022-07-31T21:40:40.320Z,1.10
2022-07-31T21:43:08.341Z,1.20
2022-07-31T21:45:50.434Z,1.25
2022-07-31T21:48:25.167Z,1.40
2022-07-31T21:50:54.683Z,1.30
2022-07-31T21:53:22.346Z,1.10
2022-07-31T21:55:49.803Z,1.00
2022-07-31T21:58:17.759Z,1.30
2022-07-31T22:00:45.062Z,1.20
2022-07-31T22:03:12.573Z,1.23
2022-07-31T22:05:57.974Z,1.65
2022-07-31T22:08:25.400Z,1.20
2022-07-31T22:10:52.430Z,1.10
2022-07-31T22:13:19.901Z,1.30
2022-07-31T22:15:55.585Z,1.25
2022-07-31T22:18:32.549Z,1.20
2022-07-31T22:21:01.289Z,1.20
2022-07-31T22:23:29.350Z,1.30
2022-07-31T22:25:56.852Z,1.20
2022-07-31T22:28:25.711Z,1.30
2022-07-31T22:30:53.491Z,1.25
2022-07-31T22:33:21.880Z,1.20
2022-07-31T22:36:09.074Z,1.10
2022-07-31T22:38:38.049Z,1.30
2022-07-31T22:41:05.306Z,1.13
2022-07-31T22:44:12.481Z,1.33
2022-07-31T22:46:19.320Z,1.17
2022-07-31T22:48:46.686Z,1.30
2022-07-31T22:51:15.130Z,1.10
2022-07-31T22:53:43.545Z,1.30
2022-07-31T22:56:10.715Z,1.20
2022-07-31T22:58:37.695Z,3.05
2022-07-31T23:01:04.591Z,1.30
2022-07-31T23:03:32.198Z,1.30
2022-07-31T23:06:02.872Z,1.40
2022-07-31T23:08:53.572Z,1.20
2022-07-31T23:11:21.871Z,1.70
2022-07-31T23:13:48.919Z,1.58
2022-07-31T23:16:15.871Z,1.30
2022-07-31T23:18:42.809Z,1.70
2022-07-31T23:21:09.828Z,1.30
2022-07-31T23:23:37.543Z,1.45
2022-07-31T23:26:04.524Z,1.40
2022-07-31T23:28:31.428Z,1.60
2022-07-31T23:30:58.465Z,1.38
2022-07-31T23:33:25.474Z,1.30
2022-07-31T23:35:52.469Z,1.50
2022-07-31T23:38:19.437Z,1.80
2022-07-31T23:40:46.358Z,1.23
2022-07-31T23:43:13.275Z,1.30
2022-07-31T23:45:40.152Z,1.40
2022-07-31T23:48:07.924Z,1.60
2022-07-31T23:50:41.984Z,1.13
2022-07-31T23:53:08.986Z,1.38
2022-07-31T23:55:39.200Z,1.60
2022-07-31T23:58:10.486Z,1.67
